createdAt,value
2022-08-02T00:02:24.943Z,86.65
2022-08-02T00:07:26.919Z,86.70
2022-08-02T00:12:28.849Z,86.59
2022-08-02T00:17:30.804Z,86.82
2022-08-02T00:22:32.686Z,86.78
2022-08-02T00:27:34.735Z,86.66
2022-08-02T00:32:36.613Z,86.63
2022-08-02T00:37:40.360Z,86.86
2022-08-02T00:42:43.836Z,86.82
2022-08-02T00:47:45.738Z,86.37
2022-08-02T00:52:47.679Z,86.63
2022-08-02T00:57:50.016Z,87.07
2022-08-02T01:02:52.126Z,87.09
2022-08-02T01:07:54.063Z,86.95
2022-08-02T01:12:55.938Z,87.12
2022-08-02T01:18:11.657Z,87.40
2022-08-02T01:23:20.401Z,87.59
2022-08-02T01:28:41.382Z,87.53
2022-08-02T01:33:47.770Z,87.75
2022-08-02T01:38:50.778Z,88.12
2022-08-02T01:43:56.749Z,88.14
2022-08-02T01:49:04.051Z,88.55
2022-08-02T01:54:13.596Z,88.90
2022-08-02T01:59:18.968Z,88.42
2022-08-02T02:04:23.305Z,87.99
2022-08-02T02:09:28.638Z,88.29
2022-08-02T02:14:30.959Z,88.08
2022-08-02T02:19:33.499Z,88.70
2022-08-02T02:24:38.567Z,87.52
2022-08-02T02:29:44.668Z,88.39
2022-08-02T02:34:47.899Z,89.16
2022-08-02T02:39:52.130Z,89.36
2022-08-02T02:44:54.537Z,89.24
2022-08-02T02:49:56.543Z,89.93
2022-08-02T02:55:00.750Z,89.66
2022-08-02T03:00:04.116Z,88.86
2022-08-02T03:05:11.996Z,88.90
2022-08-02T03:10:13.974Z,89.68
2022-08-02T03:15:17.376Z,90.30
2022-08-02T03:20:20.461Z,90.52
2022-08-02T03:25:22.495Z,90.65
2022-08-02T03:30:27.228Z,91.07
2022-08-02T03:35:29.526Z,91.07
2022-08-02T03:40:31.664Z,91.32
2022-08-02T03:45:34.198Z,91.24
2022-08-02T03:50:36.281Z,91.53
2022-08-02T03:55:39.862Z,91.73
2022-08-02T04:00:42.035Z,91.48
2022-08-02T04:05:59.341Z,91.45
2022-08-02T04:11:25.466Z,91.85
2022-08-02T04:16:44.238Z,91.54
2022-08-02T04:21:51.395Z,88.71
2022-08-02T04:27:19.370Z,86.94
2022-08-02T04:32:21.850Z,84.27
2022-08-02T04:37:24.842Z,84.01
2022-08-02T04:42:29.928Z,81.43
2022-08-02T04:47:54.257Z,78.69
2022-08-02T04:52:57.129Z,73.18
2022-08-02T04:58:36.878Z,70.28
2022-08-02T05:03:30.300Z,66.75
2022-08-02T05:08:32.372Z,61.45
2022-08-02T05:13:34.547Z,60.97
2022-08-02T05:18:56.743Z,61.31
2022-08-02T05:24:00.242Z,65.57
2022-08-02T05:29:04.227Z,69.46
2022-08-02T05:34:11.352Z,72.24
2022-08-02T05:39:19.033Z,74.10
2022-08-02T05:44:21.846Z,76.10
2022-08-02T05:49:23.861Z,77.31
2022-08-02T05:55:13.099Z,77.65
2022-08-02T06:00:15.955Z,78.02
2022-08-02T06:05:21.526Z,77.43
2022-08-02T06:10:36.318Z,76.48
2022-08-02T06:15:53.369Z,76.16
2022-08-02T06:20:59.076Z,75.02
2022-08-02T06:26:22.831Z,74.05
2022-08-02T06:31:25.259Z,72.80
2022-08-02T06:36:41.450Z,72.86
2022-08-02T06:41:49.035Z,73.69
2022-08-02T06:47:11.422Z,72.86
2022-08-02T06:52:18.727Z,72.30
2022-08-02T06:57:21.154Z,71.26
2022-08-02T07:02:23.762Z,71.50
2022-08-02T07:07:27.725Z,71.62
2022-08-02T07:12:31.170Z,72.55
2022-08-02T07:17:34.166Z,71.90
2022-08-02T07:22:36.488Z,69.82
2022-08-02T07:27:38.758Z,68.09
2022-08-02T07:32:40.740Z,67.11
2022-08-02T07:37:55.449Z,65.95
2022-08-02T07:43:03.901Z,64.55
2022-08-02T07:48:08.146Z,65.44
2022-08-02T07:53:10.110Z,64.93
2022-08-02T07:58:13.510Z,63.59
2022-08-02T08:03:16.454Z,63.30
2022-08-02T08:08:22.154Z,62.33
2022-08-02T08:13:24.907Z,61.17
2022-08-02T08:18:26.884Z,59.97
2022-08-02T08:23:30.106Z,61.52
2022-08-02T08:28:39.632Z,59.11
2022-08-02T08:33:52.351Z,59.42
2022-08-02T08:38:55.975Z,57.66
2022-08-02T08:44:00.674Z,57.03
2022-08-02T08:49:12.873Z,58.14
2022-08-02T08:54:18.452Z,56.82
2022-08-02T08:59:23.072Z,56.87
2022-08-02T09:04:25.063Z,55.55
2022-08-02T09:09:29.453Z,56.62
2022-08-02T09:14:32.559Z,55.98
2022-08-02T09:19:36.546Z,53.18
2022-08-02T09:24:44.848Z,52.40
2022-08-02T09:30:12.497Z,51.74
2022-08-02T09:35:16.728Z,50.74
2022-08-02T09:40:34.972Z,50.15
2022-08-02T09:45:40.634Z,49.88
2022-08-02T09:50:45.523Z,50.81
2022-08-02T09:55:56.409Z,50.45
2022-08-02T10:00:58.655Z,49.65
2022-08-02T10:06:03.111Z,49.86
2022-08-02T10:11:05.568Z,49.92
2022-08-02T10:16:07.776Z,49.29
2022-08-02T10:21:13.782Z,48.25
2022-08-02T10:26:17.748Z,48.54
2022-08-02T10:31:24.150Z,48.43
2022-08-02T10:36:28.975Z,45.91
2022-08-02T10:41:49.427Z,45.69
2022-08-02T10:47:16.880Z,46.73
2022-08-02T10:52:21.308Z,46.96
2022-08-02T10:57:26.194Z,46.50
2022-08-02T11:02:43.070Z,44.67
2022-08-02T11:07:49.899Z,45.88
2022-08-02T11:13:01.401Z,46.45
2022-08-02T11:18:04.169Z,44.02
2022-08-02T11:23:44.298Z,44.44
2022-08-02T11:28:50.916Z,44.77
2022-08-02T11:33:54.037Z,44.67
2022-08-02T11:39:15.863Z,45.82
2022-08-02T11:44:19.301Z,45.54
2022-08-02T11:49:28.901Z,45.97
2022-08-02T11:54:35.412Z,45.23
2022-08-02T11:59:39.152Z,44.85
2022-08-02T12:04:41.665Z,45.21
2022-08-02T12:09:46.388Z,44.78
2022-08-02T12:14:48.360Z,45.24
2022-08-02T12:19:57.232Z,45.30
2022-08-02T12:24:59.574Z,45.13
2022-08-02T12:30:10.385Z,44.71
2022-08-02T12:35:26.491Z,42.95
2022-08-02T12:40:31.996Z,43.89
2022-08-02T12:45:55.198Z,44.07
2022-08-02T12:50:57.653Z,44.63
2022-08-02T12:56:03.661Z,43.93
2022-08-02T13:01:06.026Z,43.33
2022-08-02T13:06:32.331Z,42.62
2022-08-02T13:11:30.366Z,42.24
2022-08-02T13:16:34.237Z,42.89
2022-08-02T13:22:01.560Z,44.26
2022-08-02T13:27:08.709Z,42.22
2022-08-02T13:32:11.779Z,41.47
2022-08-02T13:37:14.244Z,41.94
2022-08-02T13:42:18.851Z,41.05
2022-08-02T13:47:35.914Z,41.03
2022-08-02T13:52:44.250Z,41.41
2022-08-02T13:57:46.212Z,41.38
2022-08-02T14:02:55.767Z,41.45
2022-08-02T14:08:00.273Z,40.94
2022-08-02T14:13:04.028Z,41.59
2022-08-02T14:18:06.335Z,41.42
2022-08-02T14:23:08.371Z,42.66
2022-08-02T14:28:15.478Z,42.26
2022-08-02T14:33:22.387Z,42.36
2022-08-02T14:38:28.758Z,41.69
2022-08-02T14:43:54.527Z,41.98
2022-08-02T14:49:06.038Z,40.30
2022-08-02T14:54:12.018Z,41.01
2022-08-02T14:59:20.017Z,40.77
2022-08-02T15:04:25.482Z,41.36
2022-08-02T15:09:40.159Z,41.71
2022-08-02T15:14:45.583Z,41.76
2022-08-02T15:19:59.325Z,41.43
2022-08-02T15:25:03.657Z,40.69
2022-08-02T15:30:22.901Z,41.72
2022-08-02T15:35:28.201Z,41.38
2022-08-02T15:40:32.574Z,41.42
2022-08-02T15:45:35.605Z,40.83
2022-08-02T15:50:37.747Z,41.74
2022-08-02T15:56:04.474Z,40.80
2022-08-02T16:01:05.187Z,41.48
2022-08-02T16:06:07.458Z,41.57
2022-08-02T16:11:09.772Z,41.55
2022-08-02T16:16:15.022Z,40.91
2022-08-02T16:21:23.171Z,41.71
2022-08-02T16:26:26.109Z,41.94
2022-08-02T16:31:28.266Z,42.17
2022-08-02T16:36:30.766Z,41.74
2022-08-02T16:41:51.609Z,41.94
2022-08-02T16:46:55.633Z,42.37
2022-08-02T16:51:58.040Z,42.40
2022-08-02T16:57:03.487Z,42.28
2022-08-02T17:02:11.676Z,40.07
2022-08-02T17:08:16.499Z,38.25
2022-08-02T17:12:39.890Z,36.63
2022-08-02T17:17:44.444Z,35.59
2022-08-02T17:22:49.923Z,34.53
2022-08-02T17:27:56.001Z,34.85
2022-08-02T17:33:01.078Z,35.59
2022-08-02T17:38:03.619Z,36.26
2022-08-02T17:43:14.529Z,36.80
2022-08-02T17:48:21.706Z,37.97
2022-08-02T17:53:36.445Z,40.23
2022-08-02T17:58:38.608Z,41.79
2022-08-02T18:03:54.655Z,44.47
2022-08-02T18:08:59.628Z,45.00
2022-08-02T18:14:01.653Z,48.02
2022-08-02T18:19:04.473Z,50.41
2022-08-02T18:24:09.935Z,52.84
2022-08-02T18:29:12.406Z,53.96
2022-08-02T18:34:14.730Z,54.58
2022-08-02T18:39:17.146Z,55.90
2022-08-02T18:44:19.602Z,56.47
2022-08-02T18:49:23.577Z,57.55
2022-08-02T18:54:26.799Z,58.73
2022-08-02T18:59:36.829Z,60.10
2022-08-02T19:04:43.754Z,59.77
2022-08-02T19:09:49.230Z,60.41
2022-08-02T19:14:54.028Z,62.63
2022-08-02T19:19:56.286Z,64.03
2022-08-02T19:25:01.262Z,64.78
2022-08-02T19:30:07.401Z,64.25
2022-08-02T19:35:29.266Z,63.73
2022-08-02T19:40:34.089Z,63.52
2022-08-02T19:45:53.227Z,65.35
2022-08-02T19:51:16.690Z,65.48
2022-08-02T19:56:37.580Z,67.20
2022-08-02T20:01:48.481Z,67.28
2022-08-02T20:06:51.344Z,66.91
2022-08-02T20:11:54.982Z,66.82
2022-08-02T20:16:57.792Z,66.00
2022-08-02T20:22:00.545Z,68.92
2022-08-02T20:27:07.154Z,70.73
2022-08-02T20:32:11.567Z,72.66
2022-08-02T20:38:00.480Z,71.90
2022-08-02T20:42:42.347Z,70.74
2022-08-02T20:47:50.968Z,70.88
2022-08-02T20:52:55.163Z,71.08
2022-08-02T20:58:03.110Z,70.76
2022-08-02T21:03:14.250Z,71.25
2022-08-02T21:08:21.981Z,72.45
2022-08-02T21:13:26.889Z,74.46
2022-08-02T21:18:40.955Z,74.62
2022-08-02T21:23:48.797Z,75.03
2022-08-02T21:29:03.127Z,74.42
2022-08-02T21:34:22.135Z,74.14
2022-08-02T21:39:28.961Z,74.25
2022-08-02T21:44:38.570Z,74.45
2022-08-02T21:50:13.294Z,75.22
2022-08-02T21:55:24.242Z,75.98
2022-08-02T22:00:57.132Z,76.88
2022-08-02T22:06:12.592Z,77.15
2022-08-02T22:11:17.219Z,76.09
2022-08-02T22:16:24.043Z,76.88
2022-08-02T22:21:55.010Z,77.40
2022-08-02T22:27:05.230Z,78.98
2022-08-02T22:32:38.837Z,79.16
2022-08-02T22:38:17.506Z,79.06
2022-08-02T22:43:22.758Z,78.22
2022-08-02T22:48:40.635Z,77.09
2022-08-02T22:53:57.265Z,78.23
2022-08-02T23:04:25.902Z,79.41
2022-08-02T23:09:33.501Z,79.73
2022-08-02T23:14:59.626Z,80.39
2022-08-02T23:20:16.007Z,80.22
2022-08-02T23:25:21.976Z,78.32
2022-08-02T23:30:34.477Z,80.10
2022-08-02T23:35:50.720Z,81.53
2022-08-02T23:40:59.636Z,82.70
2022-08-02T23:46:05.652Z,82.61
2022-08-02T23:51:11.800Z,82.96
2022-08-02T23:56:29.537Z,83.06
